Terminal Aerodrome Forecast
Issued by NWS Caribou, ME

Home | Current Version | Previous Version | Text Only | Print | Product List | Glossary On
Versions: 1 2 3 4 5 6 7 8 9 10 11 12 13 14 15 16 17 18 19 20 21 22
000
FTUS41 KCAR 261734
TAFCAR
TAF
KCAR 261734Z 2618/2718 03006KT P6SM -SHRA BKN025 OVC035
     FM270500 35006KT 5SM -SHRA BKN009 OVC015
     FM271200 03010KT 6SM -SHRA SCT009 OVC015
     FM271600 04012G22KT P6SM OVC015=

USA.gov is the U.S. government's official web portal to all federal, state and local government web resources and services.